Time;durP1;ratioP1;P1;durP2;ratioP2;P2;SDS_P1;SDS_P2;PMS_P1;PMS_P2;Temp;Humidity;BMP_temperature;BMP_pressure;BME280_temperature;BME280_humidity;BME280_pressure;Samples;Min_cycle;Max_cycle;Signal;HPM_P1;HPM_P2
2021/12/13 00:02:11;;;;;;;25.87;19.17;;;10.20;99.90;;;;;;2612336;54;20399;-71
2021/12/13 00:04:42;;;;;;;25.73;17.10;;;10.20;99.90;;;;;;2612699;54;20411;-71
2021/12/13 00:07:19;;;;;;;22.70;16.90;;;10.10;99.90;;;;;;2611199;54;20451;-74
2021/12/13 00:09:49;;;;;;;25.63;17.93;;;10.10;99.90;;;;;;2614586;54;20742;-73
2021/12/13 00:12:28;;;;;;;27.00;18.40;;;10.10;99.90;;;;;;2613631;39;20883;-72
2021/12/13 00:14:56;;;;;;;21.83;14.70;;;10.20;99.90;;;;;;2611099;31;20819;-72
2021/12/13 00:17:36;;;;;;;23.97;16.67;;;10.10;99.90;;;;;;2609669;47;20511;-71
2021/12/13 00:20:36;;;;;;;22.47;16.63;;;10.10;99.90;;;;;;2614760;39;20772;-74
2021/12/13 00:23:13;;;;;;;34.80;20.07;;;10.10;99.90;;;;;;2615497;39;20569;-73
2021/12/13 00:25:44;;;;;;;26.30;18.50;;;10.10;99.90;;;;;;2614988;47;20415;-71
2021/12/13 00:28:14;;;;;;;14.27;12.10;;;10.00;99.90;;;;;;2614500;51;20408;-72
2021/12/13 00:30:49;;;;;;;21.47;15.20;;;10.00;99.90;;;;;;2615089;54;20507;-71
2021/12/13 00:33:43;;;;;;;16.97;12.33;;;10.00;99.90;;;;;;2614987;54;20879;-72
2021/12/13 00:36:34;;;;;;;19.87;14.97;;;10.00;99.90;;;;;;2609995;39;20964;-75
2021/12/13 00:39:28;;;;;;;22.40;16.17;;;10.00;99.90;;;;;;2609401;39;20833;-71
2021/12/13 00:41:54;;;;;;;20.07;14.60;;;10.20;99.90;;;;;;2611495;54;20476;-74
2021/12/13 00:44:24;;;;;;;23.17;14.83;;;10.20;99.90;;;;;;2612001;39;20862;-72
2021/12/13 00:46:54;;;;;;;17.70;13.20;;;10.20;99.90;;;;;;2611160;54;20446;-72
2021/12/13 00:49:24;;;;;;;21.00;14.17;;;10.00;99.90;;;;;;2610213;54;20412;-75
2021/12/13 00:51:56;;;;;;;16.23;10.60;;;10.00;99.90;;;;;;2610639;47;20957;-74
2021/12/13 00:54:32;;;;;;;23.67;17.90;;;10.00;99.90;;;;;;2610619;47;20513;-71
2021/12/13 00:56:58;;;;;;;21.97;14.37;;;10.10;99.90;;;;;;2611385;39;20787;-70
2021/12/13 00:59:29;;;;;;;23.60;18.13;;;10.00;99.90;;;;;;2613504;39;20842;-72
2021/12/13 01:02:16;;;;;;;23.93;16.87;;;10.00;99.90;;;;;;2612648;47;20419;-71
2021/12/13 01:04:54;;;;;;;21.00;16.63;;;10.00;99.90;;;;;;2611468;54;20442;-73
2021/12/13 01:07:59;;;;;;;23.33;16.93;;;10.00;99.90;;;;;;2613066;54;20430;-73
2021/12/13 01:10:43;;;;;;;23.40;16.70;;;10.00;99.90;;;;;;2611246;47;20427;-71
2021/12/13 01:13:13;;;;;;;26.30;18.70;;;9.90;99.90;;;;;;2610664;54;20430;-70
2021/12/13 01:16:14;;;;;;;23.70;16.07;;;9.90;99.90;;;;;;2611162;54;20422;-73
2021/12/13 01:21:53;;;;;;;25.03;16.83;;;9.90;99.90;;;;;;2611266;54;20452;-72
2021/12/13 01:24:42;;;;;;;23.53;18.70;;;9.90;99.90;;;;;;2611217;54;20426;-71
2021/12/13 01:27:07;;;;;;;26.10;19.10;;;9.90;99.90;;;;;;2611109;54;20546;-77
2021/12/13 01:29:33;;;;;;;24.67;15.00;;;9.90;99.90;;;;;;2611418;39;20894;-75
2021/12/13 01:32:03;;;;;;;24.43;14.60;;;9.90;99.90;;;;;;2613007;54;20523;-72
2021/12/13 01:34:31;;;;;;;24.80;18.40;;;9.90;99.90;;;;;;2612037;54;20415;-72
2021/12/13 01:37:10;;;;;;;30.10;20.00;;;9.90;99.90;;;;;;2613073;47;20444;-71
2021/12/13 01:39:41;;;;;;;29.37;18.70;;;9.90;99.90;;;;;;2611332;54;20443;-74
2021/12/13 01:42:23;;;;;;;26.43;17.70;;;9.80;99.90;;;;;;2613050;54;20477;-71
2021/12/13 01:44:56;;;;;;;20.43;12.77;;;9.90;99.90;;;;;;2611662;54;20423;-75
2021/12/13 01:47:31;;;;;;;22.83;16.00;;;9.80;99.90;;;;;;2611864;54;20423;-71
2021/12/13 01:50:14;;;;;;;25.93;18.90;;;9.80;99.90;;;;;;2611462;54;20984;-73
2021/12/13 01:52:40;;;;;;;27.07;18.63;;;9.90;99.90;;;;;;2612297;47;21003;-73
2021/12/13 01:55:17;;;;;;;24.30;18.77;;;9.80;99.90;;;;;;2610963;54;20419;-72
2021/12/13 01:57:55;;;;;;;26.60;19.53;;;9.90;99.90;;;;;;2611095;39;20802;-71
2021/12/13 02:01:08;;;;;;;22.43;16.70;;;9.80;99.90;;;;;;2610814;54;20511;-75
2021/12/13 02:03:22;;;;;;;27.40;18.27;;;9.80;99.90;;;;;;2611013;39;20916;-76
2021/12/13 02:05:49;;;;;;;26.10;18.10;;;9.80;99.90;;;;;;2610946;54;20464;-79
2021/12/13 02:08:21;;;;;;;29.53;18.93;;;9.80;99.90;;;;;;2610248;54;20427;-79
2021/12/13 02:10:55;;;;;;;27.43;19.60;;;9.90;99.90;;;;;;2611105;54;20962;-78
2021/12/13 02:13:26;;;;;;;20.37;16.23;;;9.90;99.90;;;;;;2610061;47;20431;-74
2021/12/13 02:18:48;;;;;;;23.33;16.60;;;9.80;99.90;;;;;;2609912;47;20447;-79
2021/12/13 02:21:36;;;;;;;23.10;15.87;;;9.80;99.90;;;;;;2612835;54;20411;-78
2021/12/13 02:24:12;;;;;;;19.67;14.50;;;9.90;99.90;;;;;;2610349;54;20403;-78
2021/12/13 02:26:42;;;;;;;20.83;15.30;;;10.00;99.90;;;;;;2612480;54;20413;-78
2021/12/13 02:29:21;;;;;;;20.93;14.93;;;10.10;99.90;;;;;;2613252;54;20414;-77
2021/12/13 02:31:48;;;;;;;16.80;13.73;;;9.90;99.90;;;;;;2611740;47;20415;-77
2021/12/13 02:34:17;;;;;;;23.70;14.17;;;9.90;99.90;;;;;;2610623;54;20453;-79
2021/12/13 02:36:50;;;;;;;21.03;13.87;;;9.90;99.90;;;;;;2614547;54;20426;-77
2021/12/13 02:39:24;;;;;;;18.00;14.37;;;9.90;99.90;;;;;;2611990;54;20450;-78
2021/12/13 02:41:52;;;;;;;16.20;13.07;;;9.90;99.90;;;;;;2614035;54;20416;-79
2021/12/13 02:44:23;;;;;;;15.50;12.30;;;9.90;99.90;;;;;;2613491;54;20403;-79
2021/12/13 02:46:52;;;;;;;14.47;11.70;;;10.00;99.90;;;;;;2613746;47;20438;-76
2021/12/13 02:49:19;;;;;;;17.30;13.70;;;10.00;99.90;;;;;;2614506;54;20435;-78
2021/12/13 02:51:50;;;;;;;14.90;11.63;;;10.30;99.90;;;;;;2614004;39;20805;-75
2021/12/13 02:54:19;;;;;;;19.60;13.53;;;10.10;99.90;;;;;;2614123;54;20442;-78
2021/12/13 02:56:57;;;;;;;13.43;11.70;;;10.30;99.90;;;;;;2613901;54;20387;-78
2021/12/13 02:59:26;;;;;;;15.30;11.97;;;10.20;99.90;;;;;;2615271;54;20407;-76
2021/12/13 03:01:54;;;;;;;19.63;11.37;;;9.90;99.90;;;;;;2613322;54;20403;-79
2021/12/13 03:04:23;;;;;;;13.77;10.50;;;10.00;99.90;;;;;;2614932;54;20427;-78
2021/12/13 03:07:05;;;;;;;20.30;12.30;;;10.10;99.90;;;;;;2613607;54;20431;-75
2021/12/13 03:09:35;;;;;;;15.40;10.37;;;9.90;99.90;;;;;;2612328;54;22632;-79
2021/12/13 03:12:04;;;;;;;19.90;13.03;;;9.80;99.90;;;;;;2612544;54;20407;-77
2021/12/13 03:14:34;;;;;;;15.10;12.50;;;9.90;99.90;;;;;;2616151;31;20832;-76
2021/12/13 03:17:32;;;;;;;15.17;11.17;;;9.90;99.90;;;;;;2614011;54;20427;-78
2021/12/13 03:20:20;;;;;;;15.73;11.80;;;9.90;99.90;;;;;;2615876;47;20418;-78
2021/12/13 03:22:58;;;;;;;19.20;12.27;;;10.10;99.90;;;;;;2613377;54;20406;-77
2021/12/13 03:25:39;;;;;;;14.33;10.20;;;10.00;99.90;;;;;;2614638;54;20398;-78
2021/12/13 03:28:33;;;;;;;11.83;9.20;;;9.80;99.90;;;;;;2612915;54;20948;-78
2021/12/13 03:31:15;;;;;;;14.67;12.03;;;9.90;99.90;;;;;;2615324;47;20428;-76
2021/12/13 03:33:48;;;;;;;14.30;9.77;;;9.80;99.90;;;;;;2613514;47;20412;-79
2021/12/13 03:36:19;;;;;;;12.87;10.03;;;9.70;99.90;;;;;;2614609;54;20537;-76
2021/12/13 03:38:49;;;;;;;11.53;9.13;;;9.80;99.90;;;;;;2611514;54;20465;-78
2021/12/13 03:41:20;;;;;;;12.70;10.23;;;9.80;99.90;;;;;;2615489;54;20422;-80
2021/12/13 03:44:02;;;;;;;17.30;10.90;;;10.00;99.90;;;;;;2613243;47;20423;-79
2021/12/13 03:46:32;;;;;;;13.07;9.47;;;9.90;99.90;;;;;;2615090;54;20420;-77
2021/12/13 03:49:00;;;;;;;12.40;10.00;;;9.90;99.90;;;;;;2614231;47;20410;-78
2021/12/13 03:51:32;;;;;;;17.63;10.10;;;10.00;99.90;;;;;;2615372;54;20503;-80
2021/12/13 03:53:59;;;;;;;14.03;10.63;;;10.20;99.90;;;;;;2615263;31;20862;-78
2021/12/13 03:56:30;;;;;;;15.83;10.40;;;10.10;99.90;;;;;;2614852;54;20477;-78
2021/12/13 03:59:02;;;;;;;11.10;8.23;;;10.20;99.90;;;;;;2612780;51;20475;-80
2021/12/13 04:01:44;;;;;;;12.20;8.50;;;10.10;99.90;;;;;;2614345;39;21588;-79
2021/12/13 04:04:20;;;;;;;11.40;8.90;;;10.10;99.90;;;;;;2615565;54;20426;-79
2021/12/13 04:06:54;;;;;;;10.90;9.23;;;10.10;99.90;;;;;;2612494;54;20450;-80
2021/12/13 04:09:23;;;;;;;8.10;7.30;;;10.00;99.90;;;;;;2610461;47;20433;-77
2021/12/13 04:11:54;;;;;;;9.77;8.13;;;9.90;99.90;;;;;;2613212;54;20468;-77
2021/12/13 04:14:26;;;;;;;11.40;8.83;;;9.70;99.90;;;;;;2615211;47;20417;-76
2021/12/13 04:17:04;;;;;;;13.30;8.17;;;10.00;99.90;;;;;;2615058;54;20406;-80
2021/12/13 04:19:51;;;;;;;12.07;8.47;;;10.30;99.90;;;;;;2615008;54;20991;-77
2021/12/13 04:22:20;;;;;;;11.50;7.53;;;10.10;99.90;;;;;;2613970;54;20956;-75
2021/12/13 04:24:53;;;;;;;12.93;8.17;;;10.10;99.90;;;;;;2615347;54;20988;-78
2021/12/13 04:27:29;;;;;;;8.67;7.73;;;10.30;99.90;;;;;;2614242;54;20434;-80
2021/12/13 04:29:59;;;;;;;10.43;7.70;;;10.00;99.90;;;;;;2615731;39;20964;-78
2021/12/13 04:32:35;;;;;;;10.70;7.23;;;9.80;99.90;;;;;;2615409;54;20435;-77
2021/12/13 04:35:08;;;;;;;10.20;7.47;;;9.60;99.90;;;;;;2615900;54;20829;-79
2021/12/13 04:37:40;;;;;;;8.23;6.73;;;9.80;99.90;;;;;;2612216;54;20398;-77
2021/12/13 04:40:18;;;;;;;10.87;8.23;;;9.70;99.90;;;;;;2612561;54;20496;-79
2021/12/13 04:42:47;;;;;;;11.77;8.80;;;9.90;99.90;;;;;;2613908;47;20454;-78
2021/12/13 04:45:23;;;;;;;10.47;8.10;;;9.90;99.90;;;;;;2615343;54;20408;-77
2021/12/13 04:48:12;;;;;;;11.10;8.00;;;10.10;99.90;;;;;;2612831;54;20391;-77
2021/12/13 04:51:04;;;;;;;11.77;8.30;;;9.90;99.90;;;;;;2616035;54;20412;-79
2021/12/13 04:53:46;;;;;;;12.20;8.77;;;9.90;99.90;;;;;;2614707;51;20451;-79
2021/12/13 04:56:23;;;;;;;9.70;7.93;;;9.90;99.90;;;;;;2614516;54;20448;-76
2021/12/13 04:58:52;;;;;;;10.47;7.60;;;9.70;99.90;;;;;;2613013;54;20446;-79
2021/12/13 05:01:20;;;;;;;9.23;8.00;;;9.70;99.90;;;;;;2615713;54;20418;-79
2021/12/13 05:03:50;;;;;;;11.10;8.57;;;9.60;99.90;;;;;;2615439;54;20495;-78
2021/12/13 05:06:19;;;;;;;9.53;7.57;;;9.80;99.90;;;;;;2610090;47;20415;-78
2021/12/13 05:08:48;;;;;;;11.53;8.50;;;9.60;99.90;;;;;;2613182;54;20796;-79
2021/12/13 05:11:15;;;;;;;12.43;9.77;;;9.80;99.90;;;;;;2615388;54;20396;-80
2021/12/13 05:13:52;;;;;;;11.70;9.30;;;9.90;99.90;;;;;;2616273;54;20408;-76
2021/12/13 05:16:31;;;;;;;13.30;9.73;;;9.80;99.90;;;;;;2614943;54;20395;-79
2021/12/13 05:18:57;;;;;;;12.60;10.53;;;9.80;99.90;;;;;;2614259;54;20469;-80
2021/12/13 05:21:40;;;;;;;11.13;8.87;;;10.00;99.90;;;;;;2613357;54;20443;-80
2021/12/13 05:24:15;;;;;;;13.40;9.27;;;9.90;99.90;;;;;;2614592;54;20422;-79
2021/12/13 05:26:41;;;;;;;9.93;8.67;;;9.70;99.90;;;;;;2615333;54;20505;-79
2021/12/13 05:29:26;;;;;;;12.10;9.40;;;10.00;99.90;;;;;;2615297;54;20417;-77
2021/12/13 05:31:59;;;;;;;11.47;9.20;;;10.00;99.90;;;;;;2615494;54;20237;-79
2021/12/13 05:34:39;;;;;;;17.47;9.70;;;10.30;99.90;;;;;;2614451;54;20412;-80
2021/12/13 05:37:07;;;;;;;15.90;11.10;;;10.60;99.90;;;;;;2613707;47;20439;-77
2021/12/13 05:39:35;;;;;;;15.23;10.50;;;10.60;99.90;;;;;;2614969;54;20409;-77
2021/12/13 05:42:08;;;;;;;13.13;10.07;;;11.00;99.90;;;;;;2612944;54;20424;-78
2021/12/13 05:44:37;;;;;;;13.93;9.20;;;10.70;99.90;;;;;;2615214;49;21422;-81
2021/12/13 05:47:07;;;;;;;12.87;10.00;;;10.50;99.90;;;;;;2612953;54;21011;-79
2021/12/13 05:49:43;;;;;;;12.90;9.90;;;10.20;99.90;;;;;;2616449;54;20420;-79
2021/12/13 05:52:18;;;;;;;10.97;8.83;;;9.90;99.90;;;;;;2613337;47;20419;-78
2021/12/13 05:54:51;;;;;;;14.53;9.23;;;9.80;99.90;;;;;;2614903;54;20422;-81
2021/12/13 05:57:21;;;;;;;13.20;8.73;;;10.10;99.90;;;;;;2612879;39;20785;-78
2021/12/13 05:59:56;;;;;;;13.50;9.00;;;10.30;99.90;;;;;;2614615;54;20420;-80
2021/12/13 06:02:48;;;;;;;13.17;10.30;;;10.10;99.90;;;;;;2614045;47;20441;-79
2021/12/13 06:05:27;;;;;;;11.63;9.40;;;10.30;99.90;;;;;;2614758;54;20408;-80
2021/12/13 06:07:56;;;;;;;12.10;10.10;;;10.30;99.90;;;;;;2610582;54;20975;-79
2021/12/13 06:10:29;;;;;;;13.40;9.20;;;10.20;99.90;;;;;;2613416;31;20881;-79
2021/12/13 06:12:59;;;;;;;9.30;8.40;;;10.30;99.90;;;;;;2613348;54;20440;-78
2021/12/13 06:15:38;;;;;;;11.10;9.07;;;10.10;99.90;;;;;;2615893;54;20419;-79
2021/12/13 06:18:04;;;;;;;10.37;8.37;;;10.10;99.90;;;;;;2614735;54;20471;-79
2021/12/13 06:20:44;;;;;;;9.47;5.40;;;10.30;99.90;;;;;;2614551;54;20415;-78
2021/12/13 06:23:11;;;;;;;12.43;9.70;;;9.90;99.90;;;;;;2614686;54;20199;-81
2021/12/13 06:25:40;;;;;;;9.80;7.53;;;9.80;99.90;;;;;;2613130;54;20432;-78
2021/12/13 06:28:16;;;;;;;10.03;7.90;;;9.80;99.90;;;;;;2614207;54;20419;-77
2021/12/13 06:30:42;;;;;;;10.90;8.70;;;9.80;99.90;;;;;;2612872;54;20430;-77
2021/12/13 06:33:11;;;;;;;9.73;7.57;;;9.80;99.90;;;;;;2612496;54;20444;-81
2021/12/13 06:35:50;;;;;;;9.90;8.30;;;9.90;99.90;;;;;;2611414;54;20407;-79
2021/12/13 06:38:19;;;;;;;10.70;8.37;;;9.80;99.90;;;;;;2610979;47;20408;-77
2021/12/13 06:40:49;;;;;;;9.60;7.57;;;10.10;99.90;;;;;;2607733;54;21139;-78
2021/12/13 06:43:50;;;;;;;9.77;8.30;;;10.90;99.90;;;;;;2614153;54;20403;-79
2021/12/13 06:46:33;;;;;;;9.50;7.37;;;10.90;99.90;;;;;;2615045;54;20434;-80
2021/12/13 06:49:06;;;;;;;12.33;11.10;;;11.30;99.90;;;;;;2614563;39;21012;-78
2021/12/13 06:51:58;;;;;;;10.20;8.73;;;10.90;99.90;;;;;;2614430;54;20456;-79
2021/12/13 06:54:38;;;;;;;10.50;8.20;;;11.10;99.90;;;;;;2610972;54;20427;-79
2021/12/13 06:57:09;;;;;;;10.83;7.80;;;10.70;99.90;;;;;;2614310;54;20440;-82
2021/12/13 06:59:45;;;;;;;13.63;8.00;;;10.70;99.90;;;;;;2613276;31;20894;-79
2021/12/13 07:02:16;;;;;;;13.60;9.80;;;10.90;99.90;;;;;;2609029;54;20395;-78
2021/12/13 07:04:59;;;;;;;8.53;7.63;;;10.90;99.90;;;;;;2613760;39;20833;-77
2021/12/13 07:07:49;;;;;;;12.00;8.60;;;10.70;99.90;;;;;;2611928;54;20920;-80
2021/12/13 07:10:22;;;;;;;10.20;8.73;;;10.90;99.90;;;;;;2614509;39;20946;-80
2021/12/13 07:12:56;;;;;;;9.50;8.50;;;10.80;99.90;;;;;;2613633;54;20410;-78
2021/12/13 07:15:41;;;;;;;7.73;6.90;;;10.50;99.90;;;;;;2614498;54;20415;-80
2021/12/13 07:18:18;;;;;;;9.17;7.73;;;10.10;99.90;;;;;;2613337;54;20434;-80
2021/12/13 07:20:55;;;;;;;9.47;7.77;;;10.00;99.90;;;;;;2614454;54;20519;-80
2021/12/13 07:23:21;;;;;;;10.23;6.97;;;10.00;99.90;;;;;;2614130;54;20411;-80
2021/12/13 07:25:50;;;;;;;8.10;7.07;;;10.10;99.90;;;;;;2612098;47;20411;-80
2021/12/13 07:28:34;;;;;;;15.53;8.13;;;10.50;99.90;;;;;;2612587;47;20427;-80
2021/12/13 07:31:03;;;;;;;9.20;8.30;;;10.70;99.90;;;;;;2613825;54;20399;-78
2021/12/13 07:33:40;;;;;;;10.00;7.00;;;10.90;99.90;;;;;;2613051;54;20420;-78
2021/12/13 07:36:32;;;;;;;9.50;6.57;;;10.60;99.90;;;;;;2612178;54;20395;-76
2021/12/13 07:39:06;;;;;;;9.73;7.60;;;10.50;99.90;;;;;;2614411;54;20427;-77
2021/12/13 07:42:00;;;;;;;8.17;7.30;;;10.30;99.90;;;;;;2613267;54;20450;-77
2021/12/13 07:44:39;;;;;;;8.67;7.77;;;10.10;99.90;;;;;;2615118;54;20997;-78
2021/12/13 07:47:19;;;;;;;10.80;7.20;;;10.10;99.90;;;;;;2613911;39;20921;-79
2021/12/13 07:49:58;;;;;;;10.27;7.13;;;10.00;99.90;;;;;;2615024;39;20906;-79
2021/12/13 07:52:34;;;;;;;9.10;7.37;;;10.10;99.90;;;;;;2614647;39;20893;-78
2021/12/13 07:55:19;;;;;;;11.23;7.60;;;10.30;99.90;;;;;;2614875;54;20439;-78
2021/12/13 07:57:46;;;;;;;10.43;6.80;;;10.40;99.90;;;;;;2613505;39;20959;-78
2021/12/13 08:00:18;;;;;;;9.53;7.67;;;10.10;99.90;;;;;;2614213;39;20809;-76
2021/12/13 08:02:57;;;;;;;8.33;7.23;;;10.20;99.90;;;;;;2613068;54;20411;-78
2021/12/13 08:05:27;;;;;;;7.23;6.17;;;10.30;99.90;;;;;;2612766;47;20411;-76
2021/12/13 08:07:59;;;;;;;7.80;7.00;;;10.00;99.90;;;;;;2612721;39;20781;-77
2021/12/13 08:10:38;;;;;;;9.30;7.23;;;10.20;99.90;;;;;;2613144;54;20422;-78
2021/12/13 08:13:11;;;;;;;10.50;7.83;;;10.30;99.90;;;;;;2614799;54;20455;-79
2021/12/13 08:15:52;;;;;;;10.23;8.07;;;10.30;99.90;;;;;;2616230;39;21109;-79
2021/12/13 08:18:21;;;;;;;11.03;8.23;;;10.50;99.90;;;;;;2617266;54;20439;-78
2021/12/13 08:20:51;;;;;;;11.10;7.43;;;10.30;99.90;;;;;;2618187;54;20435;-76
2021/12/13 08:23:25;;;;;;;9.73;8.30;;;10.40;99.90;;;;;;2617477;54;20400;-77
2021/12/13 08:25:54;;;;;;;8.83;7.80;;;10.40;99.90;;;;;;2617882;54;20408;-77
2021/12/13 08:28:49;;;;;;;10.33;9.20;;;10.40;99.90;;;;;;2616686;54;20423;-78
2021/12/13 08:31:22;;;;;;;13.87;9.90;;;10.50;99.90;;;;;;2614471;54;20384;-78
2021/12/13 08:34:01;;;;;;;9.33;7.33;;;10.40;99.90;;;;;;2613521;54;20952;-77
2021/12/13 08:36:34;;;;;;;13.37;8.40;;;10.20;99.90;;;;;;2615672;54;20398;-78
2021/12/13 08:39:07;;;;;;;9.80;7.67;;;10.10;99.90;;;;;;2615438;54;20403;-77
2021/12/13 08:41:53;;;;;;;10.50;8.20;;;10.20;99.90;;;;;;2615746;54;20431;-79
2021/12/13 08:44:23;;;;;;;9.00;7.37;;;10.00;99.90;;;;;;2614107;47;20418;-78
2021/12/13 08:46:56;;;;;;;9.80;7.43;;;10.10;99.90;;;;;;2615788;54;20986;-75
2021/12/13 08:49:40;;;;;;;8.47;7.20;;;10.00;99.90;;;;;;2615389;54;20510;-78
2021/12/13 08:52:26;;;;;;;8.03;7.27;;;10.10;99.90;;;;;;2615205;54;20400;-79
2021/12/13 08:55:12;;;;;;;8.13;6.80;;;10.10;99.90;;;;;;2614844;39;20862;-77
2021/12/13 08:57:44;;;;;;;7.90;7.20;;;10.00;99.90;;;;;;2614949;39;20889;-79
2021/12/13 09:00:13;;;;;;;8.00;7.03;;;10.00;99.90;;;;;;2615652;54;20442;-76
2021/12/13 09:02:57;;;;;;;7.60;6.93;;;10.10;99.90;;;;;;2615239;39;20840;-77
2021/12/13 09:05:26;;;;;;;9.13;6.10;;;10.40;99.90;;;;;;2614504;54;20463;-77
2021/12/13 09:08:10;;;;;;;7.77;6.33;;;10.50;99.90;;;;;;2613987;54;20400;-77
2021/12/13 09:10:40;;;;;;;7.73;7.00;;;10.50;99.90;;;;;;2615321;54;20408;-78
2021/12/13 09:13:07;;;;;;;7.10;6.40;;;10.40;99.90;;;;;;2614604;54;20969;-77
2021/12/13 09:15:35;;;;;;;7.07;6.30;;;10.20;99.90;;;;;;2614879;47;20435;-79
2021/12/13 09:18:02;;;;;;;8.57;6.40;;;10.40;99.90;;;;;;2614270;54;20479;-78
2021/12/13 09:20:45;;;;;;;7.67;6.90;;;10.30;99.90;;;;;;2614629;47;20454;-78
2021/12/13 09:23:16;;;;;;;6.83;6.10;;;10.30;99.90;;;;;;2614426;51;20920;-76
2021/12/13 09:25:48;;;;;;;7.07;6.37;;;10.20;99.90;;;;;;2614612;54;20391;-74
2021/12/13 09:28:29;;;;;;;8.03;6.30;;;10.30;99.90;;;;;;2614839;54;20395;-78
2021/12/13 09:31:06;;;;;;;9.57;6.70;;;10.40;99.90;;;;;;2614813;54;20495;-79
2021/12/13 09:33:39;;;;;;;10.20;6.80;;;10.50;99.90;;;;;;2614879;54;20419;-77
2021/12/13 09:36:08;;;;;;;6.73;6.03;;;10.40;99.90;;;;;;2613915;54;21098;-77
2021/12/13 09:38:52;;;;;;;7.80;6.67;;;10.50;99.90;;;;;;2613776;47;20431;-77
2021/12/13 09:41:25;;;;;;;6.87;6.17;;;10.40;99.90;;;;;;2615094;54;20419;-79
2021/12/13 09:44:04;;;;;;;6.43;5.80;;;10.40;99.90;;;;;;2613016;54;20404;-77
2021/12/13 09:46:52;;;;;;;7.07;6.20;;;10.50;99.90;;;;;;2614914;54;20423;-77
2021/12/13 09:49:35;;;;;;;7.03;6.07;;;10.60;99.90;;;;;;2613780;54;20414;-78
2021/12/13 09:52:05;;;;;;;8.60;6.30;;;10.70;99.90;;;;;;2613632;54;20537;-77
2021/12/13 09:54:40;;;;;;;10.70;7.10;;;10.60;99.90;;;;;;2615572;54;20427;-78
2021/12/13 09:57:13;;;;;;;6.10;5.60;;;10.60;99.90;;;;;;2614677;54;20422;-77
2021/12/13 09:59:47;;;;;;;6.70;6.00;;;10.70;99.90;;;;;;2614484;47;20948;-78
2021/12/13 10:02:29;;;;;;;7.00;6.30;;;10.50;99.90;;;;;;2613830;54;20430;-77
2021/12/13 10:04:56;;;;;;;7.07;5.90;;;10.70;99.90;;;;;;2614760;47;20416;-78
2021/12/13 10:07:29;;;;;;;6.77;5.00;;;10.90;99.90;;;;;;2613680;47;20442;-79
2021/12/13 10:10:10;;;;;;;7.43;5.70;;;10.70;99.90;;;;;;2614980;54;20416;-77
2021/12/13 10:12:44;;;;;;;6.73;5.70;;;10.70;99.90;;;;;;2613790;54;20397;-79
2021/12/13 10:15:25;;;;;;;7.47;6.10;;;10.60;99.90;;;;;;2615684;54;20419;-78
2021/12/13 10:17:58;;;;;;;5.77;5.10;;;10.50;99.90;;;;;;2614198;39;20964;-77
2021/12/13 10:20:44;;;;;;;7.07;5.80;;;10.70;99.90;;;;;;2615102;54;20467;-77
2021/12/13 10:23:14;;;;;;;8.53;4.83;;;10.90;99.90;;;;;;2613835;54;20410;-77
2021/12/13 10:25:45;;;;;;;6.10;5.50;;;10.70;99.90;;;;;;2615549;47;20426;-77
2021/12/13 10:28:19;;;;;;;6.60;5.10;;;11.00;99.90;;;;;;2614516;54;20419;-76
2021/12/13 10:30:53;;;;;;;6.40;5.20;;;10.80;99.90;;;;;;2615570;54;20399;-78
2021/12/13 10:33:22;;;;;;;6.67;5.83;;;10.40;99.90;;;;;;2614826;54;20502;-78
2021/12/13 10:35:50;;;;;;;7.27;5.80;;;10.30;99.90;;;;;;2614320;54;20411;-78
2021/12/13 10:38:22;;;;;;;5.13;4.50;;;10.80;99.90;;;;;;2614684;54;20431;-77
2021/12/13 10:40:54;;;;;;;7.53;5.20;;;10.70;99.90;;;;;;2615350;54;20936;-77
2021/12/13 10:43:25;;;;;;;8.77;4.80;;;10.50;99.90;;;;;;2615901;39;20802;-77
2021/12/13 10:45:54;;;;;;;6.27;4.83;;;10.50;99.90;;;;;;2614802;54;21122;-78
2021/12/13 10:48:26;;;;;;;5.70;5.10;;;10.60;99.90;;;;;;2615501;54;20419;-75
2021/12/13 10:51:24;;;;;;;10.23;6.23;;;10.60;99.90;;;;;;2609406;39;21160;-77
2021/12/13 10:53:51;;;;;;;5.50;5.00;;;10.60;99.90;;;;;;2612330;47;20543;-78
2021/12/13 10:56:26;;;;;;;7.60;5.17;;;10.60;99.90;;;;;;2613063;54;20427;-78
2021/12/13 10:58:57;;;;;;;5.63;5.00;;;10.50;99.90;;;;;;2615907;54;20399;-77
2021/12/13 11:01:28;;;;;;;5.53;4.83;;;10.40;99.90;;;;;;2614611;54;20448;-77
2021/12/13 11:03:57;;;;;;;5.20;4.63;;;10.50;99.90;;;;;;2612922;39;20991;-78
2021/12/13 11:06:24;;;;;;;12.10;5.13;;;10.50;99.90;;;;;;2615680;54;20524;-77
2021/12/13 11:08:51;;;;;;;9.13;4.87;;;10.80;99.90;;;;;;2614934;54;20411;-77
2021/12/13 11:11:26;;;;;;;7.10;4.50;;;10.60;99.90;;;;;;2615780;54;20419;-78
2021/12/13 11:13:56;;;;;;;7.97;4.80;;;10.90;99.90;;;;;;2615645;54;20453;-77
2021/12/13 11:16:34;;;;;;;5.30;4.80;;;11.10;99.90;;;;;;2616459;54;20397;-76
2021/12/13 11:19:04;;;;;;;5.30;4.63;;;11.10;99.90;;;;;;2614796;54;20519;-75
2021/12/13 11:21:34;;;;;;;5.43;4.53;;;10.80;99.90;;;;;;2614702;54;20426;-77
2021/12/13 11:24:02;;;;;;;5.20;4.33;;;11.00;99.90;;;;;;2614976;54;20424;-77
2021/12/13 11:26:38;;;;;;;5.87;4.70;;;10.70;99.90;;;;;;2616306;54;20439;-78
2021/12/13 11:29:05;;;;;;;5.37;4.57;;;10.60;99.90;;;;;;2616174;39;20776;-78
2021/12/13 11:31:33;;;;;;;6.30;4.20;;;10.60;99.90;;;;;;2615101;47;20423;-76
2021/12/13 11:34:03;;;;;;;5.43;4.73;;;10.60;99.90;;;;;;2614968;54;20456;-79
2021/12/13 11:36:55;;;;;;;5.10;4.57;;;10.40;99.90;;;;;;2616048;54;20391;-76
2021/12/13 11:39:42;;;;;;;6.73;4.50;;;10.60;99.90;;;;;;2614112;51;20416;-78
2021/12/13 11:42:45;;;;;;;8.20;5.07;;;10.70;99.90;;;;;;2615461;54;20947;-77
2021/12/13 11:45:49;;;;;;;5.27;4.40;;;10.40;99.90;;;;;;2614629;54;20407;-78
2021/12/13 11:49:00;;;;;;;4.20;3.80;;;10.50;99.90;;;;;;2614558;54;20400;-78
2021/12/13 11:52:07;;;;;;;4.47;4.03;;;10.50;99.90;;;;;;2613792;54;20449;-78
2021/12/13 11:55:18;;;;;;;11.23;4.87;;;10.80;99.90;;;;;;2614273;54;20422;-76
2021/12/13 11:58:02;;;;;;;5.73;4.83;;;10.70;99.90;;;;;;2611409;47;20430;-75
2021/12/13 12:00:57;;;;;;;6.90;4.33;;;11.20;99.90;;;;;;2613875;54;20411;-77
2021/12/13 12:04:14;;;;;;;4.80;4.30;;;11.20;99.90;;;;;;2612880;54;20901;-78
2021/12/13 12:06:58;;;;;;;5.43;4.40;;;10.70;99.90;;;;;;2612570;54;20422;-77
2021/12/13 12:09:47;;;;;;;4.87;3.70;;;10.50;99.90;;;;;;2613233;54;20551;-78
2021/12/13 12:12:38;;;;;;;6.10;4.37;;;10.50;99.90;;;;;;2613431;54;20420;-77
2021/12/13 12:15:05;;;;;;;5.80;4.53;;;10.50;99.90;;;;;;2613590;47;20430;-75
2021/12/13 12:17:33;;;;;;;5.60;4.83;;;10.80;99.90;;;;;;2611685;47;20440;-77
2021/12/13 12:20:00;;;;;;;4.87;4.50;;;10.90;99.90;;;;;;2613839;39;20930;-77
2021/12/13 12:22:47;;;;;;;5.77;4.60;;;10.90;99.90;;;;;;2612615;54;20411;-77
2021/12/13 12:25:13;;;;;;;6.00;4.53;;;11.00;99.90;;;;;;2613742;39;20533;-78
2021/12/13 12:27:39;;;;;;;6.30;4.93;;;11.10;99.90;;;;;;2612991;54;20430;-77
2021/12/13 12:30:15;;;;;;;7.03;5.23;;;11.00;99.90;;;;;;2613575;54;20210;-78
2021/12/13 12:32:50;;;;;;;8.23;5.30;;;10.90;99.90;;;;;;2612861;54;20446;-76
2021/12/13 12:35:21;;;;;;;4.67;4.27;;;10.90;99.90;;;;;;2610680;47;20469;-77
2021/12/13 12:37:57;;;;;;;8.07;4.53;;;10.60;99.90;;;;;;2613243;47;20550;-77
2021/12/13 12:40:26;;;;;;;4.63;4.23;;;10.80;99.90;;;;;;2613323;47;20434;-76
2021/12/13 12:42:55;;;;;;;4.30;3.90;;;10.90;99.90;;;;;;2613046;54;20404;-78
2021/12/13 12:45:24;;;;;;;5.33;4.80;;;11.00;99.90;;;;;;2615594;39;20868;-77
2021/12/13 12:47:50;;;;;;;6.70;4.47;;;10.80;99.90;;;;;;2616302;54;20534;-78
2021/12/13 12:50:26;;;;;;;5.03;4.53;;;11.00;99.90;;;;;;2617365;54;20442;-77
2021/12/13 12:52:56;;;;;;;5.00;4.30;;;10.90;99.90;;;;;;2615386;54;20154;-79
2021/12/13 12:55:28;;;;;;;7.87;4.70;;;11.20;99.90;;;;;;2616788;31;20837;-78
2021/12/13 12:57:55;;;;;;;5.40;4.83;;;10.90;99.90;;;;;;2615047;54;20422;-79
2021/12/13 13:00:30;;;;;;;7.83;4.60;;;11.20;99.90;;;;;;2615337;54;20419;-79
2021/12/13 13:02:56;;;;;;;4.77;4.30;;;11.60;99.90;;;;;;2614749;54;20427;-78
2021/12/13 13:05:26;;;;;;;5.63;5.13;;;11.40;99.90;;;;;;2616487;54;20464;-76
2021/12/13 13:07:54;;;;;;;4.60;4.20;;;11.20;99.90;;;;;;2610732;54;20431;-74
2021/12/13 13:13:02;;;;;;;6.70;4.20;;;11.30;99.90;;;;;;2614819;54;20489;-77
2021/12/13 13:15:44;;;;;;;5.63;4.40;;;11.20;99.90;;;;;;2615386;54;20415;-78
2021/12/13 13:18:15;;;;;;;4.73;3.53;;;11.50;99.90;;;;;;2614694;54;20447;-79
2021/12/13 13:20:55;;;;;;;4.23;3.83;;;11.60;99.90;;;;;;2614214;54;20415;-78
2021/12/13 13:23:24;;;;;;;5.20;4.33;;;11.20;99.90;;;;;;2616324;54;20436;-79
2021/12/13 13:25:55;;;;;;;5.43;4.93;;;11.00;99.90;;;;;;2615756;54;20427;-75
2021/12/13 13:28:33;;;;;;;8.03;4.40;;;11.10;99.90;;;;;;2615140;54;20444;-79
2021/12/13 13:31:14;;;;;;;9.00;4.37;;;11.20;99.90;;;;;;2610389;54;20430;-78
2021/12/13 13:33:49;;;;;;;5.03;4.53;;;11.50;99.90;;;;;;2615153;54;20383;-77